createdAt,value
2019-04-26T00:00:34.019Z,15.70
2019-04-26T00:03:05.773Z,27.17
2019-04-26T00:05:36.181Z,20.20
2019-04-26T00:08:06.019Z,21.23
2019-04-26T00:10:54.225Z,23.13
2019-04-26T00:13:30.928Z,21.60
2019-04-26T00:16:08.393Z,20.17
2019-04-26T00:18:39.489Z,19.80
2019-04-26T00:21:09.609Z,20.70
2019-04-26T00:23:39.617Z,23.33
2019-04-26T00:26:09.174Z,21.23
2019-04-26T00:28:38.598Z,19.07
2019-04-26T00:31:07.866Z,20.13
2019-04-26T00:33:37.125Z,19.87
2019-04-26T00:36:06.734Z,23.00
2019-04-26T00:38:36.006Z,19.23
2019-04-26T00:41:05.581Z,23.53
2019-04-26T00:43:35.405Z,24.13
2019-04-26T00:46:05.974Z,21.07
2019-04-26T00:48:36.256Z,18.37
2019-04-26T00:51:06.477Z,25.83
2019-04-26T00:53:36.956Z,19.83
2019-04-26T00:56:06.739Z,19.63
2019-04-26T00:58:36.764Z,22.03
2019-04-26T01:01:06.034Z,15.30
2019-04-26T01:03:35.617Z,19.57
2019-04-26T01:06:07.091Z,20.07
2019-04-26T01:08:36.574Z,19.20
2019-04-26T01:11:05.835Z,24.97
2019-04-26T01:13:35.097Z,17.73
2019-04-26T01:16:04.353Z,18.17
2019-04-26T01:18:35.169Z,16.70
2019-04-26T01:21:05.918Z,22.30
2019-04-26T01:23:38.805Z,21.23
2019-04-26T01:26:17.009Z,25.30
2019-04-26T01:29:01.070Z,21.30
2019-04-26T01:31:33.437Z,14.80
2019-04-26T01:34:02.701Z,12.33
2019-04-26T01:36:33.535Z,18.73
2019-04-26T01:39:12.135Z,15.57
2019-04-26T01:41:46.787Z,23.63
2019-04-26T01:44:24.618Z,17.13
2019-04-26T01:46:54.891Z,19.73
2019-04-26T01:49:24.762Z,14.37
2019-04-26T01:52:03.074Z,12.40
2019-04-26T01:54:38.281Z,16.97
2019-04-26T01:57:07.543Z,18.90
2019-04-26T01:59:40.559Z,23.53
2019-04-26T02:02:29.785Z,19.03
2019-04-26T02:05:01.994Z,15.37
2019-04-26T02:07:41.013Z,19.83
2019-04-26T02:10:12.905Z,19.10
2019-04-26T02:12:45.234Z,14.53
2019-04-26T02:15:15.172Z,21.33
2019-04-26T02:17:45.738Z,17.27
2019-04-26T02:20:35.578Z,14.77
2019-04-26T02:23:15.553Z,17.40
2019-04-26T02:25:44.942Z,17.50
2019-04-26T02:28:14.253Z,15.67
2019-04-26T02:30:43.506Z,17.00
2019-04-26T02:33:12.951Z,15.63
2019-04-26T02:35:42.415Z,18.40
2019-04-26T02:38:11.666Z,18.83
2019-04-26T02:40:40.934Z,15.57
2019-04-26T02:43:11.087Z,14.73
2019-04-26T02:46:08.782Z,15.87
2019-04-26T02:48:55.015Z,16.63
2019-04-26T02:51:32.994Z,16.00
2019-04-26T02:54:20.661Z,20.30
2019-04-26T02:56:51.519Z,16.43
2019-04-26T02:59:50.314Z,15.57
2019-04-26T03:02:24.716Z,15.03
2019-04-26T03:04:59.210Z,14.13
2019-04-26T03:07:44.561Z,13.13
2019-04-26T03:10:14.219Z,14.23
2019-04-26T03:12:45.784Z,15.73
2019-04-26T03:15:26.921Z,15.73
2019-04-26T03:18:19.797Z,13.27
2019-04-26T03:20:53.725Z,15.30
2019-04-26T03:23:56.236Z,15.93
2019-04-26T03:26:53.023Z,15.50
2019-04-26T03:29:39.633Z,16.70
2019-04-26T03:32:24.250Z,17.43
2019-04-26T03:35:37.000Z,19.80
2019-04-26T03:38:21.441Z,15.10
2019-04-26T03:41:14.962Z,12.20
2019-04-26T03:44:17.323Z,10.30
2019-04-26T03:46:51.614Z,13.10
2019-04-26T03:49:54.168Z,13.33
2019-04-26T03:52:56.908Z,18.10
2019-04-26T03:56:20.013Z,18.73
2019-04-26T03:59:15.824Z,16.27
2019-04-26T04:01:57.562Z,17.67
2019-04-26T04:04:38.616Z,11.90
2019-04-26T04:07:11.362Z,17.83
2019-04-26T04:09:44.901Z,13.63
2019-04-26T04:12:51.794Z,18.37
2019-04-26T04:15:28.442Z,16.07
2019-04-26T04:18:01.896Z,14.63
2019-04-26T04:21:29.958Z,16.60
2019-04-26T04:24:09.680Z,16.47
2019-04-26T04:26:55.372Z,13.90
2019-04-26T04:29:55.527Z,16.67
2019-04-26T04:32:51.937Z,18.50
2019-04-26T04:35:24.170Z,15.67
2019-04-26T04:38:09.005Z,15.37
2019-04-26T04:41:01.090Z,17.17
2019-04-26T04:43:41.936Z,13.67
2019-04-26T04:46:56.167Z,21.23
2019-04-26T04:49:42.414Z,9.80
2019-04-26T04:52:38.817Z,13.17
2019-04-26T04:55:14.460Z,20.10
2019-04-26T04:58:02.043Z,13.40
2019-04-26T05:01:07.153Z,16.57
2019-04-26T05:03:49.181Z,19.40
2019-04-26T05:06:29.872Z,18.17
2019-04-26T05:09:10.418Z,16.93
2019-04-26T05:12:20.782Z,15.87
2019-04-26T05:15:37.945Z,20.63
2019-04-26T05:18:29.233Z,18.47
2019-04-26T05:21:46.516Z,15.47
2019-04-26T05:24:41.554Z,19.57
2019-04-26T05:27:44.339Z,17.83
2019-04-26T05:31:15.586Z,18.60
2019-04-26T05:34:07.415Z,17.93
2019-04-26T05:37:01.029Z,14.90
2019-04-26T05:39:40.522Z,14.53
2019-04-26T05:43:00.424Z,24.63
2019-04-26T05:46:05.554Z,15.30
2019-04-26T05:49:22.435Z,12.80
2019-04-26T05:52:23.861Z,20.80
2019-04-26T05:55:25.366Z,20.23
2019-04-26T05:58:25.067Z,20.33
2019-04-26T06:01:56.854Z,13.40
2019-04-26T06:04:43.402Z,17.93
2019-04-26T06:07:29.416Z,15.73
2019-04-26T06:10:35.273Z,20.60
2019-04-26T06:13:32.260Z,14.13
2019-04-26T06:16:21.404Z,16.13
2019-04-26T06:19:11.865Z,25.23
2019-04-26T06:22:06.677Z,21.40
2019-04-26T06:25:13.794Z,17.13
2019-04-26T06:27:58.452Z,14.20
2019-04-26T06:30:59.386Z,15.07
2019-04-26T06:33:47.939Z,12.97
2019-04-26T06:36:25.026Z,15.80
2019-04-26T06:39:24.140Z,14.77
2019-04-26T06:42:32.889Z,11.27
2019-04-26T06:45:41.309Z,13.20
2019-04-26T06:48:36.281Z,16.07
2019-04-26T06:51:24.082Z,9.43
2019-04-26T06:54:14.954Z,13.07
2019-04-26T06:57:17.743Z,13.50
2019-04-26T07:00:19.278Z,9.97
2019-04-26T07:03:33.034Z,13.77
2019-04-26T07:06:07.167Z,11.50
2019-04-26T07:09:11.510Z,14.30
2019-04-26T07:12:19.671Z,12.90
2019-04-26T07:15:28.774Z,11.53
2019-04-26T07:18:30.738Z,11.60
2019-04-26T07:21:45.409Z,11.90
2019-04-26T07:25:03.945Z,12.77
2019-04-26T07:28:09.403Z,10.90
2019-04-26T07:31:04.157Z,12.23
2019-04-26T07:33:58.314Z,9.60
2019-04-26T07:37:04.649Z,11.93
2019-04-26T07:40:41.293Z,12.00
2019-04-26T07:43:30.590Z,11.97
2019-04-26T07:46:26.229Z,15.00
2019-04-26T07:49:31.250Z,17.73
2019-04-26T07:52:31.438Z,16.00
2019-04-26T07:55:54.145Z,14.33
2019-04-26T07:59:08.809Z,12.30
2019-04-26T08:02:29.829Z,11.37
2019-04-26T08:05:07.926Z,13.77
2019-04-26T08:07:43.078Z,13.10
2019-04-26T08:10:16.819Z,13.57
2019-04-26T08:12:52.398Z,16.20
2019-04-26T08:15:44.358Z,10.67
2019-04-26T08:18:22.082Z,9.87
2019-04-26T08:20:55.178Z,20.93
2019-04-26T08:23:39.487Z,14.23
2019-04-26T08:26:06.159Z,16.62
2019-04-26T08:28:38.754Z,9.60
2019-04-26T08:31:11.540Z,15.95
2019-04-26T08:33:48.803Z,11.70
2019-04-26T08:36:27.151Z,12.18
2019-04-26T08:38:55.557Z,13.40
2019-04-26T08:41:25.521Z,12.25
2019-04-26T08:44:08.621Z,16.75
2019-04-26T08:46:58.851Z,13.90
2019-04-26T08:49:39.072Z,12.60
2019-04-26T08:52:14.591Z,16.65
2019-04-26T08:54:53.603Z,15.28
2019-04-26T08:57:27.573Z,12.55
2019-04-26T09:00:00.339Z,16.40
2019-04-26T09:02:43.895Z,12.47
2019-04-26T09:05:49.865Z,14.95
2019-04-26T09:08:23.279Z,8.75
2019-04-26T09:10:55.362Z,17.42
2019-04-26T09:13:28.694Z,9.68
2019-04-26T09:16:05.436Z,7.28
2019-04-26T09:18:42.955Z,14.45
2019-04-26T09:21:05.814Z,13.22
2019-04-26T09:23:52.645Z,9.05
2019-04-26T09:26:42.446Z,7.53
2019-04-26T09:29:30.473Z,7.55
2019-04-26T09:32:19.425Z,11.45
2019-04-26T09:34:49.225Z,11.15
2019-04-26T09:37:18.710Z,8.98
2019-04-26T09:39:47.974Z,10.78
2019-04-26T09:42:27.711Z,8.78
2019-04-26T09:45:15.171Z,8.10
2019-04-26T09:47:50.873Z,7.72
2019-04-26T09:50:48.205Z,5.87
2019-04-26T09:53:19.256Z,29.40
2019-04-26T09:55:48.643Z,10.15
2019-04-26T09:58:18.625Z,12.18
2019-04-26T10:00:50.190Z,8.93
2019-04-26T10:03:19.741Z,8.05
2019-04-26T10:05:52.120Z,7.97
2019-04-26T10:08:20.733Z,10.48
2019-04-26T10:10:51.749Z,11.53
2019-04-26T10:13:40.260Z,7.05
2019-04-26T10:16:18.638Z,10.55
2019-04-26T10:18:54.492Z,8.15
2019-04-26T10:21:29.976Z,10.43
2019-04-26T10:23:59.314Z,7.78
2019-04-26T10:26:29.833Z,11.33
2019-04-26T10:28:59.522Z,10.05
2019-04-26T10:31:32.775Z,8.70
2019-04-26T10:34:02.230Z,7.08
2019-04-26T10:36:31.717Z,11.03
2019-04-26T10:39:01.101Z,12.65
2019-04-26T10:41:30.752Z,9.23
2019-04-26T10:44:00.034Z,8.73
2019-04-26T10:46:29.537Z,8.25
2019-04-26T10:49:08.548Z,10.18
2019-04-26T10:51:38.577Z,13.18
2019-04-26T10:54:17.941Z,9.20
2019-04-26T10:57:04.834Z,7.00
2019-04-26T10:59:47.726Z,13.45
2019-04-26T11:02:19.141Z,6.62
2019-04-26T11:04:48.689Z,8.43
2019-04-26T11:07:17.954Z,9.85
2019-04-26T11:09:47.277Z,12.90
2019-04-26T11:12:17.954Z,12.37
2019-04-26T11:14:47.222Z,9.23
2019-04-26T11:17:17.829Z,8.90
2019-04-26T11:19:47.247Z,8.85
2019-04-26T11:22:28.615Z,10.75
2019-04-26T11:24:50.079Z,14.13
2019-04-26T11:27:18.755Z,9.25
2019-04-26T11:29:53.560Z,7.90
2019-04-26T11:32:20.646Z,6.05
2019-04-26T11:34:58.129Z,8.90
2019-04-26T11:37:25.719Z,11.22
2019-04-26T11:39:55.179Z,7.72
2019-04-26T11:42:25.093Z,8.68
2019-04-26T11:45:05.748Z,7.60
2019-04-26T11:47:25.921Z,8.15
2019-04-26T11:49:56.101Z,14.83
2019-04-26T11:52:25.430Z,12.05
2019-04-26T11:54:55.235Z,13.25
2019-04-26T11:57:25.377Z,8.15
2019-04-26T11:59:54.643Z,10.95
2019-04-26T12:02:23.962Z,16.32
2019-04-26T12:05:03.460Z,9.65
2019-04-26T12:07:43.594Z,7.83
2019-04-26T12:10:13.555Z,7.72
2019-04-26T12:12:43.131Z,13.08
2019-04-26T12:15:14.089Z,13.32
2019-04-26T12:17:43.369Z,8.98
2019-04-26T12:20:12.684Z,12.10
2019-04-26T12:22:43.374Z,11.33
2019-04-26T12:25:13.504Z,13.98
2019-04-26T12:27:42.883Z,11.97
2019-04-26T12:30:12.749Z,9.83
2019-04-26T12:32:42.158Z,10.82
2019-04-26T12:35:11.661Z,10.80
2019-04-26T12:37:41.081Z,11.90
2019-04-26T12:40:12.348Z,10.05
2019-04-26T12:42:43.465Z,14.73
2019-04-26T12:45:20.153Z,11.00
2019-04-26T12:47:59.527Z,10.00
2019-04-26T12:50:29.557Z,14.85
2019-04-26T12:52:59.809Z,13.05
2019-04-26T12:55:29.123Z,8.28
2019-04-26T12:57:58.619Z,12.45
2019-04-26T13:00:32.965Z,6.22
2019-04-26T13:03:03.566Z,7.80
2019-04-26T13:05:33.077Z,9.33
2019-04-26T13:08:02.597Z,18.82
2019-04-26T13:10:53.805Z,14.70
2019-04-26T13:13:50.809Z,12.00
2019-04-26T13:16:38.263Z,11.48
2019-04-26T13:19:07.729Z,16.20
2019-04-26T13:21:38.605Z,15.63
2019-04-26T13:24:07.998Z,17.62
2019-04-26T13:26:37.299Z,9.03
2019-04-26T13:29:06.570Z,13.38
2019-04-26T13:31:35.897Z,16.27
2019-04-26T13:34:05.194Z,13.53
2019-04-26T13:36:34.521Z,15.45
2019-04-26T13:39:06.897Z,14.50
2019-04-26T13:41:38.709Z,16.48
2019-04-26T13:44:07.157Z,12.43
2019-04-26T13:46:54.490Z,13.98
2019-04-26T13:49:33.486Z,15.72
2019-04-26T13:52:02.882Z,16.73
2019-04-26T13:54:32.224Z,13.48
2019-04-26T13:57:01.518Z,20.10
2019-04-26T13:59:31.667Z,16.45
2019-04-26T14:02:11.368Z,14.45
2019-04-26T14:04:32.842Z,16.00
2019-04-26T14:07:02.112Z,11.73
2019-04-26T14:09:31.429Z,14.25
2019-04-26T14:12:03.356Z,13.50
2019-04-26T14:14:34.240Z,15.60
2019-04-26T14:17:02.722Z,13.45
2019-04-26T14:19:32.226Z,17.10
2019-04-26T14:22:03.253Z,14.50
2019-04-26T14:24:58.493Z,16.07
2019-04-26T14:27:45.370Z,17.27
2019-04-26T14:30:14.681Z,13.72
2019-04-26T14:32:43.942Z,15.68
2019-04-26T14:35:15.523Z,15.90
2019-04-26T14:37:45.488Z,16.27
2019-04-26T14:40:17.679Z,19.70
2019-04-26T14:42:48.449Z,12.28
2019-04-26T14:45:23.766Z,15.40
2019-04-26T14:47:48.420Z,19.55
2019-04-26T14:50:17.678Z,17.32
2019-04-26T14:52:46.941Z,19.85
2019-04-26T14:55:20.589Z,19.23
2019-04-26T14:57:51.279Z,21.62
2019-04-26T15:00:21.266Z,17.82
2019-04-26T15:03:06.208Z,17.77
2019-04-26T15:05:48.562Z,17.90
2019-04-26T15:08:17.851Z,19.42
2019-04-26T15:10:49.192Z,17.10
2019-04-26T15:13:20.898Z,16.12
2019-04-26T15:15:49.228Z,18.37
2019-04-26T15:18:18.557Z,18.40
2019-04-26T15:20:47.845Z,18.62
2019-04-26T15:23:19.420Z,20.30
2019-04-26T15:25:49.682Z,21.05
2019-04-26T15:28:19.262Z,18.50
2019-04-26T15:30:48.537Z,22.30
2019-04-26T15:33:17.841Z,19.65
2019-04-26T15:35:48.126Z,22.65
2019-04-26T15:38:17.391Z,16.93
2019-04-26T15:41:17.913Z,18.07
2019-04-26T15:44:06.131Z,24.37
2019-04-26T15:46:53.747Z,23.18
2019-04-26T15:49:42.942Z,21.60
2019-04-26T15:52:12.410Z,26.70
2019-04-26T15:54:42.514Z,20.02
2019-04-26T15:57:12.458Z,16.25
2019-04-26T15:59:43.070Z,20.57
2019-04-26T16:02:12.690Z,17.67
2019-04-26T16:04:42.459Z,21.45
2019-04-26T16:07:16.782Z,17.15
2019-04-26T16:09:43.807Z,19.35
2019-04-26T16:12:13.397Z,18.35
2019-04-26T16:14:42.919Z,23.50
2019-04-26T16:17:12.511Z,14.30
2019-04-26T16:19:42.049Z,16.25
2019-04-26T16:22:11.369Z,16.48
2019-04-26T16:24:40.693Z,22.43
2019-04-26T16:27:09.965Z,19.23
2019-04-26T16:30:02.657Z,15.50
2019-04-26T16:33:03.120Z,18.80
2019-04-26T16:35:32.677Z,17.53
2019-04-26T16:38:22.464Z,22.50
2019-04-26T16:40:53.451Z,16.42
2019-04-26T16:43:36.453Z,20.07
2019-04-26T16:45:54.257Z,18.65
2019-04-26T16:48:25.710Z,13.55
2019-04-26T16:50:54.737Z,18.50
2019-04-26T16:53:43.737Z,11.73
2019-04-26T16:55:55.030Z,15.63
2019-04-26T16:58:24.853Z,16.17
2019-04-26T17:00:57.962Z,19.03
2019-04-26T17:03:26.239Z,15.57
2019-04-26T17:06:04.819Z,25.37
2019-04-26T17:08:26.678Z,19.67
2019-04-26T17:10:56.715Z,24.17
2019-04-26T17:13:30.021Z,24.07
2019-04-26T17:15:59.800Z,18.77
2019-04-26T17:18:29.141Z,19.90
2019-04-26T17:20:58.478Z,28.80
2019-04-26T17:23:46.773Z,20.47
2019-04-26T17:26:33.607Z,26.37
2019-04-26T17:29:02.467Z,20.67
2019-04-26T17:31:33.636Z,20.73
2019-04-26T17:34:03.552Z,22.93
2019-04-26T17:36:34.601Z,23.70
2019-04-26T17:39:06.210Z,27.37
2019-04-26T17:41:35.617Z,19.13
2019-04-26T17:44:10.197Z,25.27
2019-04-26T17:46:36.219Z,24.37
2019-04-26T17:49:05.570Z,16.60
2019-04-26T17:51:41.776Z,26.80
2019-04-26T17:54:33.814Z,21.60
2019-04-26T17:56:39.554Z,38.63
2019-04-26T17:59:09.173Z,24.27
2019-04-26T18:01:46.853Z,28.10
2019-04-26T18:04:11.294Z,19.40
2019-04-26T18:06:48.196Z,23.67
2019-04-26T18:09:37.635Z,27.13
2019-04-26T18:11:43.291Z,19.52
2019-04-26T18:14:21.089Z,21.73
2019-04-26T18:16:47.383Z,21.57
2019-04-26T18:19:30.193Z,22.50
2019-04-26T18:22:14.518Z,20.67
2019-04-26T18:24:43.606Z,32.50
2019-04-26T18:27:14.658Z,26.43
2019-04-26T18:29:43.994Z,21.20
2019-04-26T18:32:13.371Z,20.07
2019-04-26T18:34:43.050Z,28.83
2019-04-26T18:37:13.271Z,29.20
2019-04-26T18:39:43.148Z,20.23
2019-04-26T18:42:13.939Z,35.77
2019-04-26T18:44:47.672Z,31.10
2019-04-26T18:47:20.645Z,28.43
2019-04-26T18:49:52.025Z,25.73
2019-04-26T18:52:23.367Z,28.47
2019-04-26T18:55:08.765Z,31.40
2019-04-26T18:57:38.057Z,25.07
2019-04-26T19:00:09.435Z,25.30
2019-04-26T19:02:38.770Z,26.70
2019-04-26T19:05:08.301Z,20.13
2019-04-26T19:07:37.554Z,22.67
2019-04-26T19:10:08.882Z,28.10
2019-04-26T19:12:38.953Z,26.00
2019-04-26T19:15:21.838Z,28.33
2019-04-26T19:18:06.194Z,25.40
2019-04-26T19:20:43.165Z,33.17
2019-04-26T19:23:12.449Z,30.63
2019-04-26T19:25:41.710Z,21.17
2019-04-26T19:28:12.138Z,25.90
2019-04-26T19:30:47.305Z,28.33
2019-04-26T19:33:16.844Z,25.50
2019-04-26T19:35:47.342Z,26.77
2019-04-26T19:38:17.006Z,30.40
2019-04-26T19:40:48.002Z,25.57
2019-04-26T19:43:28.211Z,27.73
2019-04-26T19:46:07.281Z,29.30
2019-04-26T19:48:44.270Z,24.67
2019-04-26T19:51:31.549Z,25.63
2019-04-26T19:54:13.562Z,30.83
2019-04-26T19:57:03.762Z,19.53
2019-04-26T19:59:34.461Z,22.63
2019-04-26T20:02:04.490Z,26.17
2019-04-26T20:04:34.109Z,27.23
2019-04-26T20:07:03.643Z,28.40
2019-04-26T20:09:33.077Z,24.17
2019-04-26T20:12:02.657Z,30.07
2019-04-26T20:14:45.054Z,25.40
2019-04-26T20:17:03.134Z,27.00
2019-04-26T20:19:37.094Z,25.40
2019-04-26T20:22:03.575Z,29.00
2019-04-26T20:24:33.068Z,27.07
2019-04-26T20:27:03.507Z,26.70
2019-04-26T20:29:32.998Z,26.00
2019-04-26T20:32:09.108Z,21.67
2019-04-26T20:34:38.585Z,24.07
2019-04-26T20:37:07.879Z,22.60
2019-04-26T20:39:37.293Z,23.73
2019-04-26T20:42:06.650Z,25.63
2019-04-26T20:44:49.024Z,30.37
2019-04-26T20:47:11.855Z,29.40
2019-04-26T20:49:49.367Z,26.17
2019-04-26T20:52:09.153Z,32.63
2019-04-26T20:54:38.439Z,23.60
2019-04-26T20:57:07.845Z,27.90
2019-04-26T20:59:37.207Z,24.70
2019-04-26T21:02:08.055Z,30.17
2019-04-26T21:04:38.582Z,24.90
2019-04-26T21:07:11.343Z,29.60
2019-04-26T21:09:40.827Z,35.57
2019-04-26T21:12:15.851Z,28.80
2019-04-26T21:14:44.538Z,23.93
2019-04-26T21:17:13.444Z,22.93
2019-04-26T21:19:42.929Z,23.70
2019-04-26T21:22:12.199Z,26.83
2019-04-26T21:24:43.284Z,28.27
2019-04-26T21:27:42.974Z,26.77
2019-04-26T21:30:34.809Z,28.70
2019-04-26T21:33:23.956Z,29.20
2019-04-26T21:36:15.620Z,35.10
2019-04-26T21:38:52.977Z,19.00
2019-04-26T21:41:25.466Z,33.57
2019-04-26T21:43:54.751Z,24.90
2019-04-26T21:46:24.020Z,29.40
2019-04-26T21:48:53.544Z,22.63
2019-04-26T21:51:23.097Z,27.10
2019-04-26T21:53:52.935Z,25.50
2019-04-26T21:56:23.548Z,22.60
2019-04-26T21:58:53.270Z,21.73
2019-04-26T22:01:25.165Z,24.20
2019-04-26T22:03:58.337Z,33.20
2019-04-26T22:06:28.785Z,21.97
2019-04-26T22:09:06.377Z,23.93
2019-04-26T22:11:35.633Z,21.80
2019-04-26T22:14:13.249Z,26.50
2019-04-26T22:17:02.186Z,28.63
2019-04-26T22:19:49.201Z,30.67
2019-04-26T22:22:46.273Z,28.87
2019-04-26T22:25:16.577Z,20.63
2019-04-26T22:27:45.843Z,34.27
2019-04-26T22:30:22.776Z,25.93
2019-04-26T22:32:54.627Z,32.70
2019-04-26T22:35:22.526Z,32.23
2019-04-26T22:37:53.614Z,26.97
2019-04-26T22:40:23.389Z,24.77
2019-04-26T22:42:58.034Z,24.40
2019-04-26T22:45:35.227Z,18.60
2019-04-26T22:48:11.681Z,28.87
2019-04-26T22:50:41.311Z,23.90
2019-04-26T22:53:11.992Z,32.47
2019-04-26T22:55:43.454Z,27.73
2019-04-26T22:58:13.413Z,24.77
2019-04-26T23:00:43.637Z,23.67
2019-04-26T23:03:13.775Z,24.63
2019-04-26T23:05:43.349Z,27.43
2019-04-26T23:08:13.561Z,30.13
2019-04-26T23:10:49.346Z,29.90
2019-04-26T23:13:44.556Z,26.10
2019-04-26T23:16:30.083Z,30.23
2019-04-26T23:19:20.419Z,29.77
2019-04-26T23:21:54.333Z,28.20
2019-04-26T23:24:23.703Z,29.13
2019-04-26T23:26:54.113Z,27.93
2019-04-26T23:29:23.557Z,24.73
2019-04-26T23:31:53.505Z,21.07
2019-04-26T23:34:25.291Z,27.43
2019-04-26T23:36:54.806Z,24.53
2019-04-26T23:39:24.607Z,20.33
2019-04-26T23:41:54.212Z,21.63
2019-04-26T23:44:23.589Z,19.77
2019-04-26T23:46:54.993Z,22.20
2019-04-26T23:49:25.268Z,21.13
2019-04-26T23:51:54.718Z,20.70
2019-04-26T23:54:24.106Z,16.50
2019-04-26T23:56:57.795Z,24.60
2019-04-26T23:59:26.089Z,21.53
